createdAt,value
2023-02-22T00:00:42.803Z,22.07
2023-02-22T00:03:13.115Z,22.83
2023-02-22T00:05:40.888Z,21.77
2023-02-22T00:08:10.192Z,24.60
2023-02-22T00:10:39.539Z,33.90
2023-02-22T00:13:09.859Z,27.08
2023-02-22T00:15:41.415Z,19.38
2023-02-22T00:18:11.359Z,31.15
2023-02-22T00:20:39.852Z,19.88
2023-02-22T00:23:08.980Z,18.38
2023-02-22T00:25:37.281Z,19.27
2023-02-22T00:28:05.961Z,18.38
2023-02-22T00:30:34.739Z,19.70
2023-02-22T00:33:04.024Z,27.42
2023-02-22T00:35:33.790Z,17.73
2023-02-22T00:38:03.395Z,22.88
2023-02-22T00:40:32.763Z,18.60
2023-02-22T00:43:02.455Z,16.10
2023-02-22T00:45:32.146Z,17.83
2023-02-22T00:48:00.995Z,21.70
2023-02-22T00:50:31.707Z,18.17
2023-02-22T00:53:01.593Z,23.73
2023-02-22T00:55:32.106Z,16.70
2023-02-22T00:58:01.963Z,18.23
2023-02-22T01:00:32.292Z,17.85
2023-02-22T01:03:00.868Z,17.27
2023-02-22T01:05:31.847Z,18.83
2023-02-22T01:08:01.301Z,16.80
2023-02-22T01:10:30.950Z,14.25
2023-02-22T01:13:00.934Z,16.20
2023-02-22T01:15:30.610Z,17.63
2023-02-22T01:17:59.760Z,18.05
2023-02-22T01:20:29.166Z,14.05
2023-02-22T01:23:00.705Z,16.95
2023-02-22T01:25:32.316Z,17.83
2023-02-22T01:28:02.677Z,16.25
2023-02-22T01:30:33.861Z,19.30
2023-02-22T01:33:02.681Z,14.25
2023-02-22T01:35:32.819Z,17.50
2023-02-22T01:38:02.243Z,15.35
2023-02-22T01:40:32.276Z,14.90
2023-02-22T01:43:03.660Z,16.67
2023-02-22T01:45:54.297Z,17.45
2023-02-22T01:48:29.250Z,17.23
2023-02-22T01:51:00.876Z,14.90
2023-02-22T01:53:34.476Z,17.48
2023-02-22T01:56:03.385Z,14.23
2023-02-22T01:58:36.353Z,15.95
2023-02-22T02:01:04.570Z,18.02
2023-02-22T02:03:36.429Z,17.88
2023-02-22T02:06:11.781Z,16.00
2023-02-22T02:08:49.777Z,17.48
2023-02-22T02:11:20.289Z,16.08
2023-02-22T02:13:50.629Z,17.38
2023-02-22T02:16:18.721Z,17.13
2023-02-22T02:18:46.450Z,23.00
2023-02-22T02:21:40.073Z,17.17
2023-02-22T02:24:50.320Z,20.92
2023-02-22T02:27:21.545Z,23.40
2023-02-22T02:30:38.349Z,22.20
2023-02-22T02:33:14.530Z,18.70
2023-02-22T02:35:52.488Z,19.42
2023-02-22T02:38:31.577Z,19.60
2023-02-22T02:41:07.358Z,24.00
2023-02-22T02:43:41.103Z,17.88
2023-02-22T02:46:13.253Z,23.60
2023-02-22T02:48:50.398Z,20.75
2023-02-22T02:51:20.037Z,20.40
2023-02-22T02:53:51.420Z,25.10
2023-02-22T02:56:19.326Z,18.63
2023-02-22T02:58:51.094Z,19.25
2023-02-22T03:01:35.667Z,24.67
2023-02-22T03:04:20.347Z,17.40
2023-02-22T03:07:17.869Z,16.75
2023-02-22T03:10:00.826Z,18.73
2023-02-22T03:12:39.842Z,16.95
2023-02-22T03:15:21.805Z,14.27
2023-02-22T03:17:55.543Z,15.52
2023-02-22T03:20:31.742Z,18.85
2023-02-22T03:23:09.715Z,17.95
2023-02-22T03:25:44.125Z,19.17
2023-02-22T03:28:16.637Z,16.45
2023-02-22T03:30:49.824Z,17.13
2023-02-22T03:33:27.998Z,15.00
2023-02-22T03:36:02.692Z,16.35
2023-02-22T03:38:34.838Z,15.70
2023-02-22T03:41:03.776Z,16.77
2023-02-22T03:43:37.621Z,18.13
2023-02-22T03:46:10.362Z,19.33
2023-02-22T03:48:45.228Z,18.60
2023-02-22T03:51:17.014Z,14.60
2023-02-22T03:53:49.155Z,19.05
2023-02-22T03:56:23.936Z,17.00
2023-02-22T03:58:52.962Z,17.10
2023-02-22T04:01:23.564Z,19.02
2023-02-22T04:03:51.403Z,17.80
2023-02-22T04:06:20.577Z,18.88
2023-02-22T04:08:48.447Z,16.75
2023-02-22T04:11:16.602Z,16.70
2023-02-22T04:13:45.418Z,16.98
2023-02-22T04:16:13.227Z,15.70
2023-02-22T04:18:41.070Z,18.60
2023-02-22T04:21:09.245Z,17.55
2023-02-22T04:23:45.647Z,16.67
2023-02-22T04:26:14.147Z,20.00
2023-02-22T04:28:41.942Z,16.70
2023-02-22T04:31:19.466Z,19.63
2023-02-22T04:33:47.633Z,19.77
2023-02-22T04:36:19.196Z,19.85
2023-02-22T04:38:48.946Z,19.15
2023-02-22T04:41:18.756Z,19.20
2023-02-22T04:43:47.055Z,19.42
2023-02-22T04:46:33.556Z,16.58
2023-02-22T04:49:02.642Z,18.35
2023-02-22T04:51:33.082Z,17.88
2023-02-22T04:54:08.201Z,17.17
2023-02-22T04:56:38.040Z,17.70
2023-02-22T04:59:06.842Z,18.25
2023-02-22T05:01:38.400Z,20.05
2023-02-22T05:04:07.431Z,18.88
2023-02-22T05:06:35.274Z,17.75
2023-02-22T05:09:03.174Z,19.70
2023-02-22T05:11:32.246Z,19.08
2023-02-22T05:14:00.181Z,20.10
2023-02-22T05:16:27.989Z,20.73
2023-02-22T05:18:55.735Z,23.55
2023-02-22T05:21:23.550Z,19.55
2023-02-22T05:23:51.382Z,21.83
2023-02-22T05:26:19.700Z,20.75
2023-02-22T05:28:48.801Z,21.83
2023-02-22T05:31:17.603Z,20.83
2023-02-22T05:33:45.522Z,19.55
2023-02-22T05:36:13.205Z,21.25
2023-02-22T05:38:43.384Z,18.08
2023-02-22T05:41:12.557Z,17.83
2023-02-22T05:43:40.559Z,17.77
2023-02-22T05:46:10.058Z,18.30
2023-02-22T05:48:37.964Z,16.90
2023-02-22T05:51:05.964Z,20.67
2023-02-22T05:53:33.981Z,16.27
2023-02-22T05:56:01.732Z,18.15
2023-02-22T05:58:29.463Z,16.70
2023-02-22T06:00:57.439Z,13.63
2023-02-22T06:03:26.683Z,15.15
2023-02-22T06:05:54.433Z,17.05
2023-02-22T06:08:22.143Z,15.40
2023-02-22T06:10:49.887Z,14.93
2023-02-22T06:13:17.760Z,14.77
2023-02-22T06:15:45.474Z,17.33
2023-02-22T06:18:13.190Z,16.08
2023-02-22T06:20:42.400Z,13.02
2023-02-22T06:23:10.154Z,13.85
2023-02-22T06:25:37.926Z,15.90
2023-02-22T06:28:05.880Z,14.02
2023-02-22T06:30:33.645Z,15.68
2023-02-22T06:33:01.585Z,15.52
2023-02-22T06:35:29.282Z,16.50
2023-02-22T06:37:58.425Z,15.90
2023-02-22T06:40:29.375Z,17.83
2023-02-22T06:42:57.787Z,16.83
2023-02-22T06:45:25.609Z,17.75
2023-02-22T06:47:53.453Z,17.30
2023-02-22T06:50:23.631Z,18.27
2023-02-22T06:52:51.774Z,16.23
2023-02-22T06:55:23.308Z,17.80
2023-02-22T06:57:51.807Z,16.35
2023-02-22T07:00:21.546Z,17.58
2023-02-22T07:02:49.729Z,16.90
2023-02-22T07:05:19.406Z,17.77
2023-02-22T07:07:47.988Z,19.77
2023-02-22T07:10:22.481Z,19.63
2023-02-22T07:12:52.433Z,18.90
2023-02-22T07:15:22.447Z,20.95
2023-02-22T07:17:50.296Z,22.33
2023-02-22T07:20:18.419Z,17.95
2023-02-22T07:22:46.161Z,18.08
2023-02-22T07:25:13.989Z,16.58
2023-02-22T07:27:43.968Z,15.43
2023-02-22T07:30:18.670Z,13.35
2023-02-22T07:32:47.721Z,13.98
2023-02-22T07:35:17.061Z,12.40
2023-02-22T07:37:45.254Z,11.60
2023-02-22T07:40:13.649Z,14.05
2023-02-22T07:42:57.448Z,14.68
2023-02-22T07:45:27.278Z,15.57
2023-02-22T07:47:55.625Z,13.73
2023-02-22T07:50:24.828Z,12.88
2023-02-22T07:52:54.867Z,12.32
2023-02-22T07:55:25.938Z,12.23
2023-02-22T07:57:57.418Z,13.30
2023-02-22T08:00:28.480Z,13.90
2023-02-22T08:02:57.118Z,12.57
2023-02-22T08:05:27.849Z,12.63
2023-02-22T08:07:56.096Z,12.07
2023-02-22T08:10:25.828Z,15.52
2023-02-22T08:12:56.192Z,15.45
2023-02-22T08:15:28.456Z,15.20
2023-02-22T08:17:57.139Z,13.25
2023-02-22T08:20:25.686Z,14.82
2023-02-22T08:22:53.530Z,12.52
2023-02-22T08:25:23.262Z,13.52
2023-02-22T08:27:51.180Z,13.10
2023-02-22T08:30:23.561Z,15.10
2023-02-22T08:32:52.365Z,13.20
2023-02-22T08:35:23.298Z,15.07
2023-02-22T08:37:54.151Z,15.07
2023-02-22T08:40:27.665Z,13.57
2023-02-22T08:42:55.676Z,14.15
2023-02-22T08:45:25.217Z,12.77
2023-02-22T08:47:53.110Z,13.25
2023-02-22T08:50:23.595Z,15.88
2023-02-22T08:52:52.228Z,14.88
2023-02-22T08:55:21.577Z,15.20
2023-02-22T08:57:50.583Z,15.18
2023-02-22T09:00:21.399Z,14.18
2023-02-22T09:02:50.660Z,14.95
2023-02-22T09:05:18.476Z,14.30
2023-02-22T09:07:46.487Z,15.20
2023-02-22T09:10:16.504Z,14.75
2023-02-22T09:12:44.340Z,15.93
2023-02-22T09:15:12.983Z,16.17
2023-02-22T09:17:40.846Z,15.98
2023-02-22T09:20:12.408Z,14.48
2023-02-22T09:22:40.519Z,13.15
2023-02-22T09:25:16.821Z,13.18
2023-02-22T09:27:45.216Z,13.80
2023-02-22T09:30:19.317Z,14.00
2023-02-22T09:32:47.333Z,14.02
2023-02-22T09:35:16.526Z,18.00
2023-02-22T09:37:45.033Z,13.15
2023-02-22T09:40:24.686Z,14.15
2023-02-22T09:43:03.503Z,14.63
2023-02-22T09:45:36.881Z,12.07
2023-02-22T09:48:21.339Z,13.95
2023-02-22T09:50:54.768Z,16.33
2023-02-22T09:56:01.814Z,12.40
2023-02-22T09:58:34.304Z,13.18
2023-02-22T10:01:23.916Z,15.07
2023-02-22T10:03:57.460Z,14.15
2023-02-22T10:06:27.244Z,15.23
2023-02-22T10:08:59.287Z,14.82
2023-02-22T10:11:41.743Z,15.98
2023-02-22T10:14:30.361Z,15.82
2023-02-22T10:17:06.224Z,16.27
2023-02-22T10:19:44.876Z,13.82
2023-02-22T10:22:31.553Z,14.60
2023-02-22T10:25:04.756Z,13.20
2023-02-22T10:27:35.295Z,12.85
2023-02-22T10:30:23.237Z,14.07
2023-02-22T10:32:58.638Z,15.25
2023-02-22T10:35:29.739Z,15.98
2023-02-22T10:38:05.357Z,13.82
2023-02-22T10:40:33.409Z,12.95
2023-02-22T10:43:06.766Z,12.52
2023-02-22T10:45:37.107Z,14.45
2023-02-22T10:48:11.550Z,12.57
2023-02-22T10:50:41.998Z,11.45
2023-02-22T10:53:11.817Z,16.33
2023-02-22T10:56:18.365Z,15.27
2023-02-22T10:58:51.063Z,13.07
2023-02-22T11:01:26.636Z,12.23
2023-02-22T11:04:02.746Z,12.10
2023-02-22T11:06:31.252Z,10.77
2023-02-22T11:09:11.084Z,12.00
2023-02-22T11:11:40.249Z,12.05
2023-02-22T11:14:10.701Z,10.75
2023-02-22T11:16:42.025Z,11.90
2023-02-22T11:19:20.910Z,11.43
2023-02-22T11:21:51.759Z,11.93
2023-02-22T11:24:24.096Z,11.65
2023-02-22T11:26:56.254Z,9.40
2023-02-22T11:29:28.701Z,8.68
2023-02-22T11:31:57.174Z,8.82
2023-02-22T11:34:36.388Z,9.07
2023-02-22T11:37:29.286Z,10.50
2023-02-22T11:40:21.796Z,9.25
2023-02-22T11:42:51.556Z,9.98
2023-02-22T11:45:23.784Z,8.38
2023-02-22T11:47:57.395Z,10.13
2023-02-22T11:50:29.894Z,8.85
2023-02-22T11:53:16.921Z,12.73
2023-02-22T11:55:57.267Z,9.65
2023-02-22T11:58:37.873Z,8.68
2023-02-22T12:01:17.114Z,11.00
2023-02-22T12:04:10.502Z,8.85
2023-02-22T12:06:48.475Z,8.55
2023-02-22T12:09:21.870Z,9.52
2023-02-22T12:12:00.915Z,9.35
2023-02-22T12:14:41.929Z,8.73
2023-02-22T12:17:29.455Z,9.57
2023-02-22T12:20:06.912Z,8.32
2023-02-22T12:22:36.794Z,10.23
2023-02-22T12:25:14.607Z,8.80
2023-02-22T12:27:47.042Z,7.95
2023-02-22T12:30:23.584Z,9.02
2023-02-22T12:32:53.834Z,10.68
2023-02-22T12:35:24.453Z,9.38
2023-02-22T12:38:04.098Z,8.95
2023-02-22T12:40:38.530Z,11.07
2023-02-22T12:43:16.706Z,7.90
2023-02-22T12:45:50.210Z,9.20
2023-02-22T12:48:27.295Z,8.60
2023-02-22T12:50:59.602Z,8.52
2023-02-22T12:53:32.253Z,8.02
2023-02-22T12:56:05.782Z,8.18
2023-02-22T12:58:42.224Z,7.82
2023-02-22T13:01:17.897Z,8.23
2023-02-22T13:03:46.717Z,9.02
2023-02-22T13:06:35.455Z,8.13
2023-02-22T13:09:21.074Z,9.40
2023-02-22T13:11:56.818Z,7.15
2023-02-22T13:14:40.669Z,7.95
2023-02-22T13:17:20.789Z,7.35
2023-02-22T13:19:56.732Z,8.50
2023-02-22T13:22:33.060Z,6.78
2023-02-22T13:25:09.935Z,7.50
2023-02-22T13:27:43.786Z,6.60
2023-02-22T13:30:22.769Z,7.20
2023-02-22T13:33:04.547Z,7.18
2023-02-22T13:35:56.820Z,8.75
2023-02-22T13:38:50.492Z,7.40
2023-02-22T13:41:37.226Z,7.13
2023-02-22T13:44:29.538Z,6.20
2023-02-22T13:47:31.896Z,8.67
2023-02-22T13:50:41.056Z,8.27
2023-02-22T13:53:15.492Z,7.82
2023-02-22T13:55:49.416Z,7.57
2023-02-22T13:58:17.479Z,8.95
2023-02-22T14:00:48.598Z,8.27
2023-02-22T14:03:36.133Z,7.85
2023-02-22T14:06:05.706Z,6.80
2023-02-22T14:08:43.780Z,8.25
2023-02-22T14:11:45.080Z,7.35
2023-02-22T14:14:17.369Z,7.75
2023-02-22T14:16:45.579Z,7.63
2023-02-22T14:19:22.934Z,7.32
2023-02-22T14:22:01.951Z,7.45
2023-02-22T14:24:31.645Z,7.07
2023-02-22T14:27:03.419Z,7.68
2023-02-22T14:29:31.998Z,7.30
2023-02-22T14:32:04.344Z,7.28
2023-02-22T14:34:50.626Z,6.38
2023-02-22T14:37:24.815Z,7.18
2023-02-22T14:39:58.457Z,6.88
2023-02-22T14:42:32.731Z,7.00
2023-02-22T14:45:03.016Z,7.18
2023-02-22T14:47:39.800Z,6.50
2023-02-22T14:50:17.402Z,7.28
2023-02-22T14:52:49.889Z,7.32
2023-02-22T14:55:22.537Z,6.97
2023-02-22T14:58:00.093Z,6.60
2023-02-22T15:00:37.904Z,8.45
2023-02-22T15:03:05.648Z,8.48
2023-02-22T15:05:39.362Z,6.82
2023-02-22T15:08:09.392Z,7.25
2023-02-22T15:10:43.809Z,8.00
2023-02-22T15:13:23.726Z,7.15
2023-02-22T15:16:00.498Z,6.75
2023-02-22T15:18:34.827Z,8.02
2023-02-22T15:21:13.119Z,7.20
2023-02-22T15:23:44.698Z,7.03
2023-02-22T15:26:35.255Z,7.88
2023-02-22T15:29:08.664Z,7.53
2023-02-22T15:31:38.173Z,8.48
2023-02-22T15:34:24.148Z,7.60
2023-02-22T15:36:56.156Z,6.85
2023-02-22T15:39:29.534Z,8.02
2023-02-22T15:42:06.063Z,7.07
2023-02-22T15:44:36.923Z,8.32
2023-02-22T15:47:05.790Z,8.20
2023-02-22T15:49:37.819Z,9.48
2023-02-22T15:52:10.759Z,8.52
2023-02-22T15:54:45.430Z,7.18
2023-02-22T15:57:19.512Z,7.40
2023-02-22T15:59:53.007Z,8.45
2023-02-22T16:02:31.545Z,7.22
2023-02-22T16:05:02.645Z,8.30
2023-02-22T16:07:32.212Z,8.52
2023-02-22T16:10:07.999Z,8.82
2023-02-22T16:12:36.262Z,8.40
2023-02-22T16:15:04.682Z,8.32
2023-02-22T16:17:37.739Z,8.15
2023-02-22T16:20:36.210Z,7.65
2023-02-22T16:23:26.714Z,7.63
2023-02-22T16:26:06.387Z,8.25
2023-02-22T16:28:35.956Z,7.00
2023-02-22T16:31:04.736Z,8.13
2023-02-22T16:33:33.989Z,8.23
2023-02-22T16:36:07.930Z,8.32
2023-02-22T16:38:39.181Z,8.90
2023-02-22T16:41:08.312Z,9.23
2023-02-22T16:43:36.777Z,8.73
2023-02-22T16:46:07.211Z,10.43
2023-02-22T16:48:38.145Z,10.50
2023-02-22T16:51:14.770Z,9.15
2023-02-22T16:53:44.594Z,9.65
2023-02-22T16:56:16.117Z,9.45
2023-02-22T16:58:46.261Z,10.00
2023-02-22T17:01:14.023Z,9.75
2023-02-22T17:03:41.888Z,7.82
2023-02-22T17:06:11.010Z,9.85
2023-02-22T17:08:39.278Z,8.80
2023-02-22T17:11:09.516Z,9.50
2023-02-22T17:13:37.402Z,10.40
2023-02-22T17:16:05.734Z,10.50
2023-02-22T17:18:34.490Z,9.45
2023-02-22T17:21:03.622Z,10.05
2023-02-22T17:23:31.603Z,8.75
2023-02-22T17:26:02.082Z,10.45
2023-02-22T17:28:32.489Z,8.60
2023-02-22T17:31:01.801Z,10.65
2023-02-22T17:33:33.722Z,9.10
2023-02-22T17:36:02.907Z,10.10
2023-02-22T17:38:31.726Z,9.13
2023-02-22T17:41:01.408Z,10.13
2023-02-22T17:43:29.605Z,11.20
2023-02-22T17:45:58.771Z,10.35
2023-02-22T17:48:27.210Z,10.00
2023-02-22T17:50:54.984Z,10.27
2023-02-22T17:53:24.795Z,9.75
2023-02-22T17:55:52.736Z,10.00
2023-02-22T17:58:20.603Z,9.13
2023-02-22T18:00:50.816Z,9.93
2023-02-22T18:03:21.873Z,9.38
2023-02-22T18:05:54.955Z,9.70
2023-02-22T18:08:24.440Z,9.75
2023-02-22T18:10:56.309Z,10.73
2023-02-22T18:13:25.963Z,10.23
2023-02-22T18:15:54.304Z,10.35
2023-02-22T18:18:23.419Z,11.63
2023-02-22T18:20:55.620Z,11.55
2023-02-22T18:23:27.808Z,10.02
2023-02-22T18:26:09.757Z,10.82
2023-02-22T18:28:38.341Z,15.80
2023-02-22T18:31:08.644Z,16.70
2023-02-22T18:33:38.156Z,15.43
2023-02-22T18:36:07.581Z,13.45
2023-02-22T18:38:35.321Z,15.02
2023-02-22T18:41:04.941Z,13.88
2023-02-22T18:43:34.318Z,17.85
2023-02-22T18:46:09.919Z,19.33
2023-02-22T18:48:39.506Z,19.17
2023-02-22T18:51:10.257Z,20.98
2023-02-22T18:53:38.704Z,16.80
2023-02-22T18:56:07.705Z,16.02
2023-02-22T18:58:36.234Z,13.35
2023-02-22T19:01:05.688Z,14.38
2023-02-22T19:03:38.153Z,13.70
2023-02-22T19:06:09.757Z,12.27
2023-02-22T19:08:39.587Z,12.43
2023-02-22T19:11:09.764Z,12.90
2023-02-22T19:13:37.908Z,13.73
2023-02-22T19:16:08.199Z,11.50
2023-02-22T19:18:36.236Z,12.23
2023-02-22T19:21:08.584Z,12.32
2023-02-22T19:23:45.364Z,13.00
2023-02-22T19:26:14.240Z,13.80
2023-02-22T19:28:41.960Z,14.05
2023-02-22T19:31:18.584Z,15.70
2023-02-22T19:33:48.278Z,15.02
2023-02-22T19:36:16.681Z,15.07
2023-02-22T19:38:46.383Z,14.60
2023-02-22T19:41:18.150Z,16.75
2023-02-22T19:43:46.877Z,12.70
2023-02-22T19:46:17.719Z,14.25
2023-02-22T19:48:46.007Z,13.80
2023-02-22T19:51:15.714Z,15.00
2023-02-22T19:53:44.706Z,13.60
2023-02-22T19:56:16.292Z,13.85
2023-02-22T19:58:46.447Z,14.73
2023-02-22T20:01:14.761Z,13.82
2023-02-22T20:03:43.539Z,15.40
2023-02-22T20:06:11.931Z,14.32
2023-02-22T20:08:42.187Z,15.45
2023-02-22T20:11:11.453Z,15.82
2023-02-22T20:13:41.516Z,16.48
2023-02-22T20:16:10.801Z,16.08
2023-02-22T20:18:38.687Z,14.95
2023-02-22T20:21:10.118Z,16.60
2023-02-22T20:23:40.150Z,14.85
2023-02-22T20:26:16.101Z,16.20
2023-02-22T20:28:45.777Z,16.10
2023-02-22T20:31:16.335Z,14.85
2023-02-22T20:33:46.658Z,16.48
2023-02-22T20:36:16.579Z,19.20
2023-02-22T20:38:45.158Z,15.02
2023-02-22T20:41:15.660Z,15.70
2023-02-22T20:43:45.046Z,17.42
2023-02-22T20:46:12.849Z,16.42
2023-02-22T20:48:40.669Z,16.58
2023-02-22T20:51:10.431Z,15.55
2023-02-22T20:53:41.668Z,15.43
2023-02-22T20:56:13.602Z,15.68
2023-02-22T20:58:41.679Z,17.87
2023-02-22T21:01:13.797Z,24.35
2023-02-22T21:03:43.154Z,21.17
2023-02-22T21:06:14.975Z,17.10
2023-02-22T21:08:44.370Z,15.80
2023-02-22T21:11:12.806Z,17.00
2023-02-22T21:13:40.759Z,16.30
2023-02-22T21:16:11.000Z,16.45
2023-02-22T21:18:38.862Z,17.23
2023-02-22T21:21:10.360Z,17.70
2023-02-22T21:23:39.166Z,19.05
2023-02-22T21:26:07.439Z,18.50
2023-02-22T21:28:50.404Z,17.83
2023-02-22T21:31:22.326Z,18.08
2023-02-22T21:33:51.627Z,17.13
2023-02-22T21:36:20.441Z,16.48
2023-02-22T21:38:53.284Z,17.85
2023-02-22T21:41:24.173Z,18.70
2023-02-22T21:43:53.229Z,19.60
2023-02-22T21:46:22.623Z,18.50
2023-02-22T21:48:51.010Z,22.15
2023-02-22T21:51:21.691Z,18.83
2023-02-22T21:53:52.101Z,19.27
2023-02-22T21:56:24.237Z,19.55
2023-02-22T21:58:59.053Z,21.38
2023-02-22T22:01:29.436Z,21.55
2023-02-22T22:04:00.012Z,18.27
2023-02-22T22:06:29.235Z,20.67
2023-02-22T22:08:59.753Z,22.30
2023-02-22T22:11:30.463Z,20.58
2023-02-22T22:13:59.606Z,20.73
2023-02-22T22:16:30.164Z,20.02
2023-02-22T22:18:58.836Z,19.45
2023-02-22T22:21:26.832Z,18.48
2023-02-22T22:23:56.069Z,21.42
2023-02-22T22:26:25.704Z,19.35
2023-02-22T22:28:55.833Z,19.48
2023-02-22T22:31:25.867Z,20.38
2023-02-22T22:33:56.340Z,20.17
2023-02-22T22:36:26.552Z,19.65
2023-02-22T22:38:57.259Z,19.95
2023-02-22T22:41:28.050Z,23.08
2023-02-22T22:43:56.728Z,21.20
2023-02-22T22:46:24.570Z,20.70
2023-02-22T22:48:52.430Z,24.63
2023-02-22T22:51:22.944Z,20.15
2023-02-22T22:53:52.898Z,22.02
2023-02-22T22:56:25.867Z,19.52
2023-02-22T23:01:27.087Z,19.13
2023-02-22T23:03:59.238Z,19.60
2023-02-22T23:06:32.894Z,20.05
2023-02-22T23:09:11.641Z,19.58
2023-02-22T23:11:44.318Z,20.75
2023-02-22T23:16:42.235Z,20.38
2023-02-22T23:19:10.760Z,19.60
2023-02-22T23:21:42.991Z,20.05
2023-02-22T23:24:15.070Z,20.17
2023-02-22T23:26:48.303Z,21.42
2023-02-22T23:29:17.200Z,22.17
2023-02-22T23:31:47.958Z,21.52
2023-02-22T23:34:16.738Z,22.02
2023-02-22T23:36:46.745Z,20.98
2023-02-22T23:39:16.823Z,21.20
2023-02-22T23:41:44.836Z,23.15
2023-02-22T23:44:17.372Z,23.13
2023-02-22T23:49:19.986Z,18.95
2023-02-22T23:51:49.843Z,22.70
2023-02-22T23:54:20.289Z,22.45
2023-02-22T23:56:56.337Z,23.17
2023-02-22T23:59:25.357Z,24.10
